Time;durP1;ratioP1;P1;durP2;ratioP2;P2;SDS_P1;SDS_P2;PMS_P1;PMS_P2;Temp;Humidity;BMP_temperature;BMP_pressure;BME280_temperature;BME280_humidity;BME280_pressure;Samples;Min_cycle;Max_cycle;Signal;HPM_P1;HPM_P2
2023/04/27 04:01:38;;;;;;;0.80;0.57;;;8.50;91.60;;;;;;5477103;23;20633;-72
2023/04/27 04:04:06;;;;;;;0.73;0.50;;;8.30;92.00;;;;;;4933889;29;20534;-73
2023/04/27 04:06:35;;;;;;;0.50;0.10;;;8.20;92.10;;;;;;4930233;29;20457;-72
2023/04/27 04:09:03;;;;;;;0.50;0.10;;;8.20;92.50;;;;;;4935057;29;20447;-72
2023/04/27 04:11:33;;;;;;;0.50;0.20;;;8.20;93.30;;;;;;4934525;29;20499;-72
2023/04/27 04:14:00;;;;;;;0.60;0.20;;;8.20;93.30;;;;;;4934500;29;20443;-72
2023/04/27 04:16:28;;;;;;;0.87;0.27;;;8.20;93.20;;;;;;4934386;29;20448;-72
2023/04/27 04:18:57;;;;;;;0.60;0.10;;;8.20;93.40;;;;;;4927602;29;20450;-74
2023/04/27 04:21:25;;;;;;;0.50;0.10;;;8.20;93.60;;;;;;4937610;29;20472;-71
2023/04/27 04:23:53;;;;;;;0.50;0.10;;;8.20;93.80;;;;;;4937402;29;20483;-71
2023/04/27 04:26:22;;;;;;;1.27;1.03;;;8.20;93.90;;;;;;4938037;29;20456;-71
2023/04/27 04:28:50;;;;;;;0.50;0.10;;;8.20;93.90;;;;;;4937209;29;20451;-72
2023/04/27 04:31:17;;;;;;;0.50;0.10;;;8.20;94.00;;;;;;4933928;29;20499;-71
2023/04/27 04:33:45;;;;;;;0.87;0.67;;;8.10;93.80;;;;;;4936949;29;20495;-71
2023/04/27 04:36:15;;;;;;;0.50;0.10;;;8.10;94.30;;;;;;4937281;29;20454;-72
2023/04/27 04:38:42;;;;;;;0.50;0.10;;;8.20;95.10;;;;;;4932028;29;20441;-72
2023/04/27 04:41:10;;;;;;;0.60;0.10;;;8.10;94.90;;;;;;4935740;29;20463;-72
2023/04/27 04:43:38;;;;;;;0.50;0.10;;;8.10;95.50;;;;;;4935929;29;20475;-71
2023/04/27 04:46:06;;;;;;;0.50;0.10;;;;;;;;;;4936701;29;20466;-71
2023/04/27 04:48:35;;;;;;;0.50;0.10;;;8.10;96.10;;;;;;4934459;29;20479;-72
2023/04/27 04:51:05;;;;;;;0.60;0.27;;;8.10;96.40;;;;;;4930001;29;20932;-71
2023/04/27 04:53:34;;;;;;;0.50;0.20;;;8.10;96.50;;;;;;4933264;29;20436;-71
2023/04/27 04:56:09;;;;;;;0.50;0.10;;;8.00;96.70;;;;;;4937058;29;20868;-72
2023/04/27 04:58:36;;;;;;;0.50;0.20;;;8.00;97.30;;;;;;4937364;29;20447;-72
2023/04/27 05:01:04;;;;;;;0.50;0.10;;;8.00;97.20;;;;;;4936541;29;20553;-71
2023/04/27 05:03:32;;;;;;;0.50;0.20;;;7.90;97.80;;;;;;4933445;29;20491;-71
2023/04/27 05:06:00;;;;;;;0.60;0.10;;;8.00;98.20;;;;;;4930254;29;20448;-72
2023/04/27 05:08:29;;;;;;;10.70;1.50;;;7.90;98.20;;;;;;4937247;29;20440;-72
2023/04/27 05:10:58;;;;;;;0.50;0.10;;;7.90;97.30;;;;;;4936849;29;20475;-71
2023/04/27 05:13:26;;;;;;;0.50;0.20;;;7.80;97.80;;;;;;4936777;29;20966;-71
2023/04/27 05:15:55;;;;;;;0.50;0.20;;;7.80;98.10;;;;;;4933361;29;20487;-71
2023/04/27 05:18:23;;;;;;;0.60;0.30;;;7.80;98.10;;;;;;4930869;29;20465;-72
2023/04/27 05:20:51;;;;;;;0.50;0.20;;;7.80;98.40;;;;;;4934462;29;20475;-71
2023/04/27 05:23:19;;;;;;;0.50;0.10;;;7.90;98.50;;;;;;4934483;29;20510;-71
2023/04/27 05:25:46;;;;;;;0.60;0.20;;;8.00;98.10;;;;;;4931887;29;20443;-72
2023/04/27 05:28:16;;;;;;;0.50;0.10;;;8.00;97.20;;;;;;4932134;29;20455;-72
2023/04/27 05:30:45;;;;;;;0.60;0.20;;;8.10;97.20;;;;;;4929663;29;20501;-72
2023/04/27 05:33:13;;;;;;;1.90;1.80;;;8.20;96.90;;;;;;4934583;29;20465;-71
2023/04/27 05:35:41;;;;;;;0.50;0.10;;;8.20;96.30;;;;;;4934069;29;20484;-71
2023/04/27 05:38:09;;;;;;;0.50;0.10;;;8.20;95.70;;;;;;4936642;29;20957;-71
2023/04/27 05:40:37;;;;;;;0.60;0.20;;;8.30;96.80;;;;;;4936982;29;20458;-71
2023/04/27 05:43:05;;;;;;;0.50;0.10;;;8.30;96.60;;;;;;4936166;29;21034;-72
2023/04/27 05:45:39;;;;;;;0.50;0.10;;;8.30;96.60;;;;;;4937104;29;20485;-71
2023/04/27 05:48:07;;;;;;;0.50;0.10;;;8.30;96.30;;;;;;4933092;29;20483;-71
2023/04/27 05:50:37;;;;;;;0.50;0.20;;;8.40;96.30;;;;;;4931005;29;20455;-71
2023/04/27 05:53:05;;;;;;;3.67;1.33;;;8.40;96.20;;;;;;4927159;29;20455;-72
2023/04/27 05:55:33;;;;;;;0.70;0.60;;;8.50;96.30;;;;;;4934970;29;20465;-72
2023/04/27 05:58:02;;;;;;;0.97;0.87;;;8.50;96.60;;;;;;4934397;29;20839;-72
2023/04/27 06:00:37;;;;;;;0.60;0.10;;;8.60;95.70;;;;;;4936053;29;20462;-71
2023/04/27 06:03:05;;;;;;;0.60;0.10;;;8.70;95.80;;;;;;4936319;29;20458;-73
2023/04/27 06:05:34;;;;;;;0.60;0.30;;;8.70;95.80;;;;;;4935877;29;20487;-72
2023/04/27 06:08:02;;;;;;;0.60;0.20;;;8.70;94.30;;;;;;4937574;29;20851;-72
2023/04/27 06:10:30;;;;;;;0.57;0.17;;;8.70;94.60;;;;;;4938134;29;20823;-71
2023/04/27 06:12:58;;;;;;;0.50;0.10;;;8.80;95.20;;;;;;4935773;29;20447;-72
2023/04/27 06:15:26;;;;;;;0.60;0.10;;;8.90;95.40;;;;;;4937662;29;20456;-72
2023/04/27 06:17:55;;;;;;;0.50;0.10;;;8.90;94.90;;;;;;4936668;29;20452;-72
2023/04/27 06:20:23;;;;;;;0.50;0.10;;;9.00;95.20;;;;;;4936181;29;20449;-72
2023/04/27 06:22:51;;;;;;;0.70;0.70;;;9.00;94.80;;;;;;4935603;29;20478;-72
2023/04/27 06:25:18;;;;;;;0.60;0.60;;;9.10;94.90;;;;;;4935672;29;20495;-72
2023/04/27 06:27:46;;;;;;;0.60;0.10;;;9.10;94.90;;;;;;4936633;29;20448;-71
2023/04/27 06:30:14;;;;;;;0.50;0.10;;;9.20;95.50;;;;;;4936155;29;20478;-72
2023/04/27 06:32:42;;;;;;;0.60;0.10;;;9.20;94.50;;;;;;4935038;29;21179;-72
2023/04/27 06:35:11;;;;;;;0.60;0.10;;;9.30;94.40;;;;;;4935620;29;20439;-72
2023/04/27 06:37:40;;;;;;;0.50;0.10;;;9.30;93.90;;;;;;4936798;29;20462;-72
2023/04/27 06:40:08;;;;;;;0.80;0.47;;;9.50;93.20;;;;;;4936007;29;20649;-73
2023/04/27 06:42:36;;;;;;;0.80;0.70;;;9.50;91.70;;;;;;4936076;29;20468;-72
2023/04/27 06:45:05;;;;;;;2.10;0.77;;;9.60;90.90;;;;;;4935989;29;20527;-72
2023/04/27 06:47:34;;;;;;;0.60;0.10;;;9.50;90.60;;;;;;4935693;29;20452;-72
2023/04/27 06:50:02;;;;;;;0.60;0.10;;;9.60;89.40;;;;;;4936327;29;20447;-72
2023/04/27 06:52:33;;;;;;;0.60;0.10;;;9.60;89.90;;;;;;4936506;29;20476;-71
2023/04/27 06:55:01;;;;;;;0.60;0.10;;;9.70;90.30;;;;;;4936470;29;20510;-71
2023/04/27 06:57:30;;;;;;;0.60;0.10;;;;;;;;;;4938336;29;20448;-72
2023/04/27 06:59:57;;;;;;;0.60;0.30;;;9.80;89.70;;;;;;4938800;29;20503;-72
2023/04/27 07:02:25;;;;;;;0.60;0.10;;;9.70;90.80;;;;;;4938799;29;20490;-71
2023/04/27 07:04:53;;;;;;;0.60;0.10;;;9.70;91.80;;;;;;4938114;29;20494;-72
2023/04/27 07:07:21;;;;;;;0.60;0.10;;;9.70;92.00;;;;;;4938721;29;20511;-73
2023/04/27 07:09:50;;;;;;;0.60;0.20;;;9.70;91.30;;;;;;4936023;29;20474;-73
2023/04/27 07:12:18;;;;;;;0.60;0.20;;;9.80;91.40;;;;;;4936076;29;20475;-73
2023/04/27 07:14:49;;;;;;;0.60;0.10;;;9.90;91.80;;;;;;4936046;29;20451;-72
2023/04/27 07:17:17;;;;;;;0.70;0.63;;;10.10;92.10;;;;;;4935497;29;20455;-73
2023/04/27 07:19:45;;;;;;;0.60;0.20;;;10.20;92.50;;;;;;4936219;29;20455;-72
2023/04/27 07:22:14;;;;;;;45.33;2.83;;;10.40;92.30;;;;;;4935949;29;20474;-72
2023/04/27 07:24:42;;;;;;;0.60;0.10;;;10.40;90.30;;;;;;4936111;29;20483;-72
2023/04/27 07:27:12;;;;;;;0.60;0.10;;;10.50;90.40;;;;;;4936514;29;20458;-73
2023/04/27 07:29:41;;;;;;;1.90;1.53;;;10.50;87.70;;;;;;4936231;29;20523;-73
2023/04/27 07:32:09;;;;;;;0.60;0.10;;;10.50;86.80;;;;;;4935969;29;20900;-72
2023/04/27 07:34:37;;;;;;;0.60;0.27;;;10.50;87.60;;;;;;4923427;29;20441;-71
2023/04/27 07:37:19;;;;;;;0.60;0.10;;;10.50;88.00;;;;;;4916702;29;20462;-72
2023/04/27 07:39:49;;;;;;;0.60;0.10;;;10.60;89.00;;;;;;4914848;29;20463;-72
2023/04/27 07:42:19;;;;;;;0.60;0.20;;;10.80;90.40;;;;;;4915548;29;20469;-74
2023/04/27 07:44:49;;;;;;;0.60;0.10;;;10.80;90.10;;;;;;4914607;29;20564;-71
2023/04/27 07:47:17;;;;;;;0.60;0.20;;;10.90;90.60;;;;;;4917291;29;20453;-72
2023/04/27 07:49:46;;;;;;;0.60;0.17;;;;;;;;;;4915023;29;20576;-71
2023/04/27 07:52:14;;;;;;;0.70;0.50;;;11.00;88.70;;;;;;4919235;29;20469;-71
2023/04/27 07:54:42;;;;;;;11.77;10.70;;;11.00;90.60;;;;;;4918856;29;20467;-72
2023/04/27 07:57:11;;;;;;;0.70;0.43;;;11.20;90.00;;;;;;4920283;29;20467;-72
2023/04/27 07:59:40;;;;;;;0.60;0.10;;;11.10;89.00;;;;;;4920389;29;20884;-72
2023/04/27 08:02:08;;;;;;;0.60;0.10;;;11.10;90.40;;;;;;4920411;29;20478;-73
2023/04/27 08:04:47;;;;;;;0.60;0.10;;;11.20;91.10;;;;;;4920105;29;20521;-71
2023/04/27 08:07:15;;;;;;;0.60;0.10;;;11.30;88.60;;;;;;4920191;29;20551;-72
2023/04/27 08:09:44;;;;;;;2.10;1.60;;;11.30;90.30;;;;;;4920120;29;21274;-72
2023/04/27 08:12:12;;;;;;;1.10;0.53;;;11.40;90.70;;;;;;4919574;29;20480;-72
2023/04/27 08:14:41;;;;;;;0.80;0.20;;;11.40;90.50;;;;;;4919941;29;20782;-72
2023/04/27 08:17:10;;;;;;;0.60;0.20;;;11.50;90.90;;;;;;4938833;29;20451;-72
2023/04/27 08:19:38;;;;;;;0.60;0.10;;;11.50;91.30;;;;;;4938686;29;20524;-73
2023/04/27 08:22:05;;;;;;;0.60;0.10;;;11.50;90.40;;;;;;4938500;29;20992;-71
2023/04/27 08:24:34;;;;;;;0.60;0.20;;;11.60;87.80;;;;;;4938618;29;20485;-71
2023/04/27 08:27:03;;;;;;;0.60;0.10;;;11.60;85.50;;;;;;4938493;29;20453;-71
2023/04/27 08:29:31;;;;;;;0.60;0.10;;;11.70;83.90;;;;;;4939008;29;20919;-73
2023/04/27 08:32:01;;;;;;;0.60;0.10;;;11.80;87.30;;;;;;4938634;29;20559;-73
2023/04/27 08:34:30;;;;;;;0.60;0.10;;;11.90;90.30;;;;;;4925999;29;20983;-72
2023/04/27 08:36:59;;;;;;;0.60;0.40;;;11.90;84.80;;;;;;4920088;29;20454;-72
2023/04/27 08:39:27;;;;;;;0.60;0.10;;;11.80;86.60;;;;;;4919688;29;20585;-72
2023/04/27 08:41:55;;;;;;;0.77;0.20;;;11.80;75.40;;;;;;4919470;29;20484;-72
2023/04/27 08:44:23;;;;;;;0.60;0.10;;;11.80;81.20;;;;;;4918972;29;20959;-72
2023/04/27 08:46:51;;;;;;;0.60;0.20;;;11.80;82.70;;;;;;4919499;29;20464;-71
2023/04/27 08:49:20;;;;;;;0.60;0.20;;;11.90;79.60;;;;;;4918824;29;20469;-71
2023/04/27 08:51:48;;;;;;;2.40;2.20;;;11.90;83.20;;;;;;4919165;29;20577;-71
2023/04/27 08:54:16;;;;;;;0.60;0.10;;;11.90;86.70;;;;;;4919343;29;20447;-71
2023/04/27 08:56:44;;;;;;;1.00;0.50;;;12.00;85.00;;;;;;4919318;29;20448;-73
2023/04/27 08:59:16;;;;;;;0.60;0.10;;;12.00;81.00;;;;;;4919438;29;20447;-73
2023/04/27 09:01:45;;;;;;;0.60;0.10;;;12.10;79.90;;;;;;4919234;29;20477;-73
2023/04/27 09:04:14;;;;;;;0.60;0.10;;;12.10;80.00;;;;;;4919552;29;20520;-72
2023/04/27 09:06:44;;;;;;;0.60;0.10;;;12.20;79.60;;;;;;4919666;29;20489;-71
2023/04/27 09:09:22;;;;;;;0.60;0.10;;;12.20;79.90;;;;;;4919008;29;20454;-72
2023/04/27 09:11:50;;;;;;;0.70;0.40;;;12.30;82.30;;;;;;4920261;29;21075;-72
2023/04/27 09:14:19;;;;;;;2.10;1.57;;;12.30;82.90;;;;;;4920163;29;20484;-71
2023/04/27 09:16:56;;;;;;;0.60;0.10;;;12.30;82.10;;;;;;4919500;29;20544;-72
2023/04/27 09:19:24;;;;;;;5.13;2.23;;;12.30;81.00;;;;;;4919133;29;20537;-71
2023/04/27 09:22:03;;;;;;;0.90;0.80;;;12.40;81.40;;;;;;4918506;29;20480;-72
2023/04/27 09:24:31;;;;;;;2.13;2.03;;;12.50;80.50;;;;;;4918094;29;20500;-73
2023/04/27 09:26:58;;;;;;;0.60;0.10;;;12.60;80.80;;;;;;4919004;29;20574;-73
2023/04/27 09:29:35;;;;;;;0.60;0.20;;;12.70;82.00;;;;;;4919452;29;20454;-72
2023/04/27 09:32:13;;;;;;;0.60;0.10;;;12.80;81.30;;;;;;4919082;29;20592;-71
2023/04/27 09:34:44;;;;;;;0.60;0.10;;;12.80;81.60;;;;;;4920226;29;20447;-71
2023/04/27 09:37:14;;;;;;;0.60;0.10;;;12.90;83.10;;;;;;4921594;29;20469;-73
2023/04/27 09:39:42;;;;;;;0.60;0.10;;;13.00;83.00;;;;;;4921844;29;20452;-72
2023/04/27 09:42:11;;;;;;;0.60;0.10;;;13.10;82.40;;;;;;4923209;29;20480;-73
2023/04/27 09:44:39;;;;;;;0.60;0.20;;;13.20;82.10;;;;;;4922845;29;20450;-74
2023/04/27 09:47:07;;;;;;;0.60;0.10;;;13.20;81.60;;;;;;4922282;29;20560;-72
2023/04/27 09:49:35;;;;;;;0.60;0.10;;;13.40;82.80;;;;;;4921145;29;20463;-72
2023/04/27 09:52:03;;;;;;;0.60;0.10;;;13.40;81.70;;;;;;4921347;29;20474;-73
2023/04/27 09:54:34;;;;;;;0.60;0.10;;;13.50;82.30;;;;;;4922151;29;20454;-73
2023/04/27 09:57:12;;;;;;;0.60;0.10;;;13.50;80.60;;;;;;4922207;29;20447;-72
2023/04/27 09:59:53;;;;;;;2.03;0.90;;;13.50;80.00;;;;;;4919999;29;20447;-72
2023/04/27 10:02:22;;;;;;;1.47;0.47;;;13.70;77.60;;;;;;4918114;29;20492;-71
2023/04/27 10:05:13;;;;;;;0.60;0.10;;;13.70;74.90;;;;;;4917680;29;20466;-73
2023/04/27 10:07:41;;;;;;;0.60;0.10;;;13.80;73.30;;;;;;4919225;29;20538;-73
2023/04/27 10:10:17;;;;;;;0.60;0.10;;;13.90;71.40;;;;;;4919617;29;20476;-74
2023/04/27 10:12:56;;;;;;;0.60;0.10;;;13.80;65.90;;;;;;4918559;29;20998;-72
2023/04/27 10:15:29;;;;;;;0.60;0.10;;;13.80;68.00;;;;;;4919012;29;20950;-72
2023/04/27 10:18:03;;;;;;;0.60;0.10;;;13.90;71.00;;;;;;4917669;29;20448;-71
2023/04/27 10:20:32;;;;;;;0.70;0.17;;;14.10;71.90;;;;;;4918432;29;20811;-72
2023/04/27 10:23:00;;;;;;;0.60;0.10;;;14.20;72.00;;;;;;4918832;29;20943;-73
2023/04/27 10:25:36;;;;;;;0.90;0.57;;;14.20;70.90;;;;;;4919536;29;20538;-72
2023/04/27 10:28:06;;;;;;;0.60;0.20;;;14.30;70.40;;;;;;4918742;29;20545;-72
2023/04/27 10:30:36;;;;;;;0.90;0.20;;;14.30;70.30;;;;;;4919110;29;20462;-75
2023/04/27 10:33:06;;;;;;;0.70;0.43;;;14.40;69.30;;;;;;4918414;29;20451;-72
2023/04/27 10:35:35;;;;;;;0.60;0.10;;;14.50;70.50;;;;;;4917292;29;20452;-74
2023/04/27 10:38:07;;;;;;;0.60;0.20;;;;;;;;;;4918014;29;20455;-72
2023/04/27 10:40:37;;;;;;;0.60;0.10;;;14.70;66.70;;;;;;4918760;29;20455;-73
2023/04/27 10:43:09;;;;;;;0.60;0.10;;;14.70;65.50;;;;;;4918959;29;20485;-74
2023/04/27 10:45:37;;;;;;;0.60;0.10;;;14.80;68.10;;;;;;4919175;29;20452;-73
2023/04/27 10:48:06;;;;;;;0.60;0.10;;;14.90;70.60;;;;;;4918758;29;20505;-73
2023/04/27 10:50:34;;;;;;;0.60;0.20;;;15.00;71.00;;;;;;4919054;29;20864;-74
2023/04/27 10:53:04;;;;;;;0.60;0.10;;;15.20;69.10;;;;;;4917903;29;20452;-74
2023/04/27 10:55:33;;;;;;;0.60;0.10;;;15.30;69.70;;;;;;4918928;29;20457;-74
2023/04/27 10:58:02;;;;;;;0.60;0.10;;;15.30;65.50;;;;;;4918673;29;20463;-72
2023/04/27 11:00:33;;;;;;;0.60;0.20;;;15.40;64.10;;;;;;4918311;29;20476;-72
2023/04/27 11:03:11;;;;;;;0.60;0.20;;;15.30;62.50;;;;;;4918114;29;20457;-73
2023/04/27 11:05:40;;;;;;;0.60;0.27;;;15.40;63.20;;;;;;4918326;29;20450;-74
2023/04/27 11:08:09;;;;;;;0.60;0.20;;;15.40;63.40;;;;;;4917922;29;20459;-74
2023/04/27 11:10:39;;;;;;;0.60;0.10;;;15.50;65.10;;;;;;4917739;29;20819;-73
2023/04/27 11:13:13;;;;;;;0.60;0.10;;;15.60;64.10;;;;;;4918191;29;20544;-72
2023/04/27 11:15:49;;;;;;;0.70;0.40;;;15.70;61.40;;;;;;4918365;29;20817;-73
2023/04/27 11:18:18;;;;;;;0.60;0.10;;;15.80;60.40;;;;;;4918562;29;20461;-72
2023/04/27 11:20:48;;;;;;;2.60;1.60;;;15.70;60.10;;;;;;4917593;29;20502;-73
2023/04/27 11:23:24;;;;;;;0.60;0.10;;;15.60;59.80;;;;;;4917283;29;20827;-73
2023/04/27 11:25:52;;;;;;;0.60;0.10;;;15.70;61.40;;;;;;4918615;29;20512;-71
2023/04/27 11:28:22;;;;;;;0.60;0.10;;;15.90;63.00;;;;;;4919279;29;20488;-72
2023/04/27 11:30:56;;;;;;;0.60;0.20;;;16.00;61.90;;;;;;4923579;29;20471;-73
2023/04/27 11:33:24;;;;;;;0.60;0.10;;;16.10;63.90;;;;;;4926838;29;20446;-72
2023/04/27 11:35:52;;;;;;;1.33;1.03;;;16.10;57.60;;;;;;4939919;29;21034;-72
2023/04/27 11:38:20;;;;;;;0.67;0.27;;;16.00;58.80;;;;;;4939427;29;20470;-73
2023/04/27 11:41:00;;;;;;;0.70;0.40;;;16.00;60.50;;;;;;4939149;29;20476;-72
2023/04/27 11:43:29;;;;;;;0.60;0.20;;;16.10;60.70;;;;;;4939597;29;20546;-71
2023/04/27 11:45:57;;;;;;;0.60;0.10;;;16.10;59.40;;;;;;4939835;29;20493;-72
2023/04/27 11:48:27;;;;;;;0.60;0.30;;;16.00;58.30;;;;;;4938863;29;20489;-72
2023/04/27 11:50:59;;;;;;;0.60;0.10;;;16.00;62.00;;;;;;4938731;29;20501;-73
2023/04/27 11:53:32;;;;;;;0.60;0.10;;;16.20;58.70;;;;;;4938837;29;20451;-72
2023/04/27 11:56:03;;;;;;;1.43;0.70;;;16.20;58.40;;;;;;4938424;29;20457;-72
2023/04/27 11:58:35;;;;;;;0.60;0.10;;;16.20;61.80;;;;;;4938500;29;20945;-72
2023/04/27 12:01:04;;;;;;;0.60;0.10;;;16.30;61.50;;;;;;4938262;29;21009;-72
2023/04/27 12:03:32;;;;;;;0.60;0.10;;;16.50;59.50;;;;;;4938472;29;20447;-72
2023/04/27 12:06:00;;;;;;;0.60;0.10;;;16.70;61.20;;;;;;4938482;29;20447;-73
2023/04/27 12:08:43;;;;;;;0.80;0.50;;;16.80;59.20;;;;;;4939026;29;20490;-75
2023/04/27 12:11:11;;;;;;;0.60;0.20;;;17.00;55.30;;;;;;4938754;29;20463;-72
2023/04/27 12:13:40;;;;;;;0.60;0.10;;;16.90;53.20;;;;;;4938427;29;20933;-73
2023/04/27 12:16:08;;;;;;;0.83;0.83;;;16.90;55.60;;;;;;4938159;29;20450;-73
2023/04/27 12:18:36;;;;;;;0.60;0.10;;;16.90;55.50;;;;;;4938874;29;20447;-72
2023/04/27 12:21:06;;;;;;;3.00;0.97;;;16.90;54.80;;;;;;4938513;29;20986;-73
2023/04/27 12:23:35;;;;;;;2.63;2.27;;;16.70;54.40;;;;;;4938132;29;20441;-73
2023/04/27 12:26:04;;;;;;;0.60;0.20;;;16.70;55.40;;;;;;4938612;29;20457;-75
2023/04/27 12:28:31;;;;;;;0.60;0.23;;;16.80;57.50;;;;;;4938679;29;20492;-71
2023/04/27 12:31:03;;;;;;;0.60;0.10;;;17.00;55.50;;;;;;4938493;29;20471;-74
2023/04/27 12:33:31;;;;;;;0.60;0.10;;;17.10;56.50;;;;;;4934488;29;20446;-73
2023/04/27 12:35:59;;;;;;;0.60;0.10;;;17.30;57.70;;;;;;4921445;29;20507;-73
2023/04/27 12:38:28;;;;;;;0.70;0.30;;;17.40;57.60;;;;;;4925593;29;20500;-73
2023/04/27 12:40:55;;;;;;;0.60;0.10;;;17.50;57.40;;;;;;4918218;29;20479;-73
2023/04/27 12:43:23;;;;;;;0.60;0.10;;;17.70;57.90;;;;;;4918799;29;20460;-75
2023/04/27 12:45:51;;;;;;;0.60;0.10;;;17.80;57.80;;;;;;4918483;29;20859;-72
2023/04/27 12:48:21;;;;;;;0.60;0.20;;;17.60;54.30;;;;;;4918553;29;20586;-72
2023/04/27 12:50:49;;;;;;;0.60;0.10;;;17.70;55.70;;;;;;4918383;29;20467;-72
2023/04/27 12:53:17;;;;;;;0.60;0.10;;;17.80;53.50;;;;;;4918162;29;20962;-73
2023/04/27 12:55:45;;;;;;;0.60;0.30;;;17.80;53.90;;;;;;4919975;29;20478;-74
2023/04/27 12:58:13;;;;;;;0.60;0.10;;;17.90;55.80;;;;;;4918429;29;20796;-75
2023/04/27 13:00:41;;;;;;;0.70;0.20;;;18.00;58.10;;;;;;4918372;29;20448;-72
2023/04/27 13:03:09;;;;;;;0.60;0.10;;;18.10;59.80;;;;;;4918053;29;20451;-72
2023/04/27 13:05:38;;;;;;;0.60;0.20;;;18.00;53.70;;;;;;4918226;29;20444;-72
2023/04/27 13:08:06;;;;;;;0.60;0.10;;;17.80;52.30;;;;;;4918394;29;20491;-73
2023/04/27 13:10:36;;;;;;;2.63;0.90;;;17.80;52.20;;;;;;4918507;29;20460;-73
2023/04/27 13:13:03;;;;;;;0.60;0.10;;;17.70;52.90;;;;;;4918492;29;20468;-73
2023/04/27 13:15:31;;;;;;;4.00;1.60;;;17.70;52.60;;;;;;4917987;29;20510;-71
2023/04/27 13:18:00;;;;;;;0.60;0.20;;;17.80;54.30;;;;;;4918031;29;20439;-73
2023/04/27 13:20:28;;;;;;;0.60;0.10;;;;;;;;;;4918077;29;20451;-74
2023/04/27 13:22:57;;;;;;;0.60;0.10;;;17.60;48.00;;;;;;4918467;29;20464;-72
2023/04/27 13:25:26;;;;;;;0.60;0.10;;;17.70;48.90;;;;;;4918143;29;20454;-74
2023/04/27 13:27:56;;;;;;;0.70;0.43;;;17.70;49.60;;;;;;4917890;29;20487;-72
2023/04/27 13:30:24;;;;;;;1.20;0.47;;;17.60;55.50;;;;;;4918179;29;20547;-75
2023/04/27 13:32:52;;;;;;;1.00;0.90;;;;;;;;;;4917533;29;20472;-72
2023/04/27 13:35:20;;;;;;;0.60;0.10;;;17.60;59.10;;;;;;4936744;29;20459;-72
2023/04/27 13:37:48;;;;;;;2.20;0.73;;;18.10;58.00;;;;;;4936903;29;20447;-72
2023/04/27 13:40:18;;;;;;;0.60;0.10;;;17.50;57.30;;;;;;4936278;29;20458;-73
2023/04/27 13:42:45;;;;;;;1.43;1.33;;;17.40;57.50;;;;;;4936679;29;20924;-74
2023/04/27 13:45:13;;;;;;;0.60;0.10;;;17.30;58.90;;;;;;4936222;29;20784;-72
2023/04/27 13:47:41;;;;;;;0.60;0.10;;;17.30;56.00;;;;;;4936320;29;20489;-72
2023/04/27 13:50:11;;;;;;;0.60;0.10;;;17.40;57.30;;;;;;4936151;29;20505;-72
2023/04/27 13:52:40;;;;;;;0.83;0.60;;;17.60;58.50;;;;;;4935471;29;20463;-71
2023/04/27 13:55:10;;;;;;;0.60;0.10;;;17.60;56.20;;;;;;4937296;29;20452;-73
2023/04/27 13:57:40;;;;;;;0.60;0.10;;;17.70;56.90;;;;;;4939905;29;21195;-72
2023/04/27 14:00:10;;;;;;;0.60;0.20;;;17.80;55.50;;;;;;4937383;29;20454;-73
2023/04/27 14:02:38;;;;;;;0.60;0.20;;;17.90;54.80;;;;;;4937029;29;20828;-73
2023/04/27 14:05:07;;;;;;;0.60;0.10;;;18.00;53.50;;;;;;4937305;29;20455;-74
2023/04/27 14:07:35;;;;;;;0.60;0.10;;;18.20;54.10;;;;;;4936871;29;20451;-74
2023/04/27 14:10:05;;;;;;;0.60;0.20;;;18.30;54.70;;;;;;4936947;29;20545;-74
2023/04/27 14:12:34;;;;;;;0.60;0.10;;;18.40;54.20;;;;;;4936848;29;20475;-74
2023/04/27 14:15:05;;;;;;;0.60;0.10;;;18.40;52.40;;;;;;4936201;29;20821;-73
2023/04/27 14:17:32;;;;;;;0.60;0.10;;;18.50;53.80;;;;;;4936147;29;20457;-72
2023/04/27 14:20:00;;;;;;;0.60;0.10;;;18.70;52.90;;;;;;4935939;29;20447;-73
2023/04/27 14:22:29;;;;;;;0.60;0.20;;;18.80;54.20;;;;;;4935995;29;21018;-74
2023/04/27 14:24:57;;;;;;;0.60;0.10;;;18.90;51.50;;;;;;4936262;29;20457;-73
2023/04/27 14:27:25;;;;;;;0.60;0.10;;;18.90;52.20;;;;;;4935640;29;20483;-74
2023/04/27 14:29:52;;;;;;;0.60;0.10;;;18.90;52.70;;;;;;4936037;29;20491;-74
2023/04/27 14:32:22;;;;;;;0.60;0.10;;;18.90;52.80;;;;;;4935418;29;20482;-72
2023/04/27 14:34:50;;;;;;;0.60;0.10;;;18.80;52.60;;;;;;4920662;29;20445;-74
2023/04/27 14:37:18;;;;;;;0.60;0.10;;;19.00;54.10;;;;;;4916449;29;20456;-72
2023/04/27 14:39:46;;;;;;;0.60;0.20;;;19.10;55.40;;;;;;4916990;29;20447;-74
2023/04/27 14:42:13;;;;;;;0.60;0.10;;;19.20;54.10;;;;;;4916839;29;20468;-72
2023/04/27 14:44:41;;;;;;;0.60;0.10;;;19.20;52.00;;;;;;4916511;29;20959;-73
2023/04/27 14:47:09;;;;;;;0.60;0.10;;;19.10;53.50;;;;;;4916745;29;20471;-73
2023/04/27 14:49:38;;;;;;;0.60;0.10;;;18.90;57.10;;;;;;4916323;29;20489;-73
2023/04/27 14:52:06;;;;;;;0.60;0.10;;;18.90;55.80;;;;;;4916704;29;20520;-72
2023/04/27 14:54:34;;;;;;;0.60;0.20;;;18.80;56.70;;;;;;4916464;29;20513;-74
2023/04/27 14:57:02;;;;;;;0.60;0.20;;;18.60;56.90;;;;;;4917156;29;20452;-73
2023/04/27 14:59:30;;;;;;;0.70;0.20;;;18.40;55.10;;;;;;4917176;29;20449;-73
2023/04/27 15:01:58;;;;;;;0.60;0.20;;;18.40;56.40;;;;;;4917070;29;20491;-73
2023/04/27 15:04:26;;;;;;;0.60;0.10;;;18.40;56.40;;;;;;4916308;29;20940;-73
2023/04/27 15:06:56;;;;;;;0.60;0.20;;;18.50;57.00;;;;;;4929148;29;20813;-74
2023/04/27 15:09:23;;;;;;;0.60;0.20;;;18.60;57.40;;;;;;4931151;29;20497;-73
2023/04/27 15:11:52;;;;;;;0.60;0.10;;;18.70;56.70;;;;;;4934829;29;20502;-75
2023/04/27 15:14:19;;;;;;;0.60;0.10;;;18.90;57.10;;;;;;4931285;29;20471;-73
2023/04/27 15:16:47;;;;;;;0.73;0.20;;;19.10;55.80;;;;;;4930320;29;20478;-72
2023/04/27 15:19:15;;;;;;;0.60;0.20;;;19.20;54.50;;;;;;4932701;29;20959;-73
2023/04/27 15:21:43;;;;;;;0.60;0.10;;;19.40;54.00;;;;;;4925362;29;20490;-74
2023/04/27 15:24:12;;;;;;;1.17;1.07;;;19.40;54.00;;;;;;4930770;29;21041;-73
2023/04/27 15:26:40;;;;;;;0.60;0.13;;;19.50;53.90;;;;;;4935579;29;20452;-73
2023/04/27 15:29:08;;;;;;;0.60;0.10;;;19.40;52.40;;;;;;4933870;29;20494;-72
2023/04/27 15:31:36;;;;;;;0.60;0.10;;;19.40;51.80;;;;;;4929804;29;20491;-73
2023/04/27 15:34:04;;;;;;;0.60;0.10;;;19.40;52.60;;;;;;4930715;29;20443;-73
2023/04/27 15:36:32;;;;;;;0.60;0.10;;;19.50;54.30;;;;;;4935494;29;20486;-73
2023/04/27 15:39:00;;;;;;;0.60;0.10;;;19.50;54.00;;;;;;4933698;29;20462;-72
2023/04/27 15:41:29;;;;;;;0.60;0.20;;;19.60;52.00;;;;;;4932651;29;20483;-73
2023/04/27 15:43:57;;;;;;;0.80;0.50;;;19.40;52.20;;;;;;4935222;29;20464;-73
2023/04/27 15:46:25;;;;;;;0.60;0.20;;;19.30;52.10;;;;;;4935923;29;20451;-72
2023/04/27 15:48:53;;;;;;;2.20;2.10;;;19.30;50.90;;;;;;4935220;29;20589;-73
2023/04/27 15:51:21;;;;;;;0.60;0.20;;;19.20;52.10;;;;;;4935760;29;20478;-73
2023/04/27 15:53:49;;;;;;;0.60;0.20;;;19.30;55.30;;;;;;4936307;29;20507;-72
2023/04/27 15:56:17;;;;;;;0.60;0.10;;;19.40;57.20;;;;;;4935588;29;20463;-73
2023/04/27 15:58:47;;;;;;;1.73;1.33;;;19.60;58.10;;;;;;4936232;29;20545;-73
2023/04/27 16:01:15;;;;;;;0.60;0.10;;;19.80;57.90;;;;;;4932746;29;21041;-72
2023/04/27 16:03:43;;;;;;;0.60;0.10;;;19.90;56.10;;;;;;4932350;29;20508;-72
2023/04/27 16:06:11;;;;;;;0.60;0.10;;;20.00;55.20;;;;;;4936398;29;20443;-73
2023/04/27 16:08:38;;;;;;;0.60;0.10;;;20.00;51.60;;;;;;4931307;29;20575;-73
2023/04/27 16:11:06;;;;;;;0.60;0.20;;;19.90;48.20;;;;;;4930402;29;20546;-72
2023/04/27 16:13:34;;;;;;;0.60;0.10;;;19.80;51.40;;;;;;4931167;29;20550;-74
2023/04/27 16:16:04;;;;;;;0.60;0.10;;;19.80;53.40;;;;;;4938587;29;20875;-73
2023/04/27 16:18:33;;;;;;;0.60;0.10;;;19.90;50.80;;;;;;4939636;29;21026;-74
2023/04/27 16:21:02;;;;;;;0.60;0.10;;;;;;;;;;4940194;29;20820;-73
2023/04/27 16:23:30;;;;;;;0.90;0.30;;;20.30;53.30;;;;;;4939157;29;20444;-72
2023/04/27 16:25:58;;;;;;;0.60;0.20;;;20.50;54.10;;;;;;4932886;29;20459;-73
2023/04/27 16:28:26;;;;;;;1.30;0.70;;;20.60;45.70;;;;;;4941887;29;20448;-73
2023/04/27 16:30:54;;;;;;;1.00;0.60;;;20.30;41.60;;;;;;4944016;29;20490;-73
2023/04/27 16:33:24;;;;;;;0.60;0.37;;;19.90;42.50;;;;;;4937112;29;20437;-74
2023/04/27 16:35:52;;;;;;;0.60;0.20;;;;;;;;;;4935440;29;20447;-74
2023/04/27 16:40:54;;;;;;;0.80;0.40;;;19.20;43.90;;;;;;4905347;29;20473;-75
2023/04/27 16:43:22;;;;;;;0.90;0.43;;;19.30;45.50;;;;;;4904238;29;20458;-78
2023/04/27 16:45:50;;;;;;;0.60;0.10;;;19.30;46.70;;;;;;4899591;29;20474;-77
2023/04/27 16:48:18;;;;;;;0.60;0.10;;;19.30;44.80;;;;;;4898003;29;20469;-77
2023/04/27 16:50:48;;;;;;;0.60;0.20;;;19.30;43.40;;;;;;4901851;29;20497;-77
2023/04/27 16:53:19;;;;;;;0.60;0.20;;;19.30;45.90;;;;;;4899928;29;21018;-77
2023/04/27 16:55:48;;;;;;;0.60;0.17;;;19.40;47.70;;;;;;4898578;29;20956;-77
2023/04/27 16:58:16;;;;;;;0.60;0.10;;;19.50;49.70;;;;;;4903106;29;20465;-77
2023/04/27 17:00:43;;;;;;;0.60;0.10;;;19.50;60.70;;;;;;4904923;29;20941;-77
2023/04/27 17:03:11;;;;;;;0.60;0.10;;;19.80;51.40;;;;;;4901995;29;20468;-77
2023/04/27 17:05:39;;;;;;;19.30;11.40;;;19.90;50.00;;;;;;4899004;29;20508;-77